-1 Query Result

LUMCON's Bayouside Classroom: Query Results


Try Another Query    Instructions for saving Query Results    View Delimited Text File for this Query   
UserNameUserIDGroupNumberLocationLocationIDSampleDateSampleTimeBottomTempTopTempBottomSalinityTopSalinityBottomDOTopDOBottompHToppHBottomTurbidityTopTurbidityDepth
mvijay 82 AudubonPkLagoon2 40 1/1/1900 17:15 NA 25 NA NA NA 1.2 NA 7.8  NA 
mvijay 82 AudubonPkLagoon2 40 1/1/1900 17:15 NA 25 NA NA NA 2.4  8.3  33.5 NA 
mvijay 82 AudubonPkLagoon2 40 1/1/1900 17:15 NA 18.2 NA NA NA 3.4 NA 7.9  27.5 NA 
mvijay 82 AudubonPkLagoon2 40 1/1/1900 17:25 NA 25.5 NA  NA 2.2 NA 8.2  11 NA 
mvijay 82 AudubonPkLagoon2 40 1/1/1900 16:27 NA 18.0 NA NA NA 9.9 NA 8.5  34.4 NA 
mvijay 82 AudubonPkLagoon2 40 1/1/1900 16:27 NA 18.0 NA NA NA 9.9 NA 8.5  34.4 NA 
mvijay 82 AudubonPkLagoon2 40 1/1/1900 17:25 NA 26.8 NA NA NA 2.0 NA 8.1  16.5 NA 
mvijay 82 AudubonPkLagoon2 40 10/18/2006 16:40 NA NA NA NA NA 7.85 NA 8.6 NA 29.40 cm NA 
mvijay 82 AudubonPkLagoon2 40 10/19/2006 2:30  24.8   NA  7.6 0   
mvijay 82 AudubonPkLagoon2 40 10/25/2006 16:30 NA 21.5 NA NA NA 8.9 NA 8.4 NA 19.78 cm NA 
mvijay 82 AudubonPkLagoon2 40 10/26/2006 2:30  24.8    6.6  8.4  18.2  
mvijay 82 AudubonPkLagoon2 40 11/1/2006 16:37 NA 21.7 NA NA NA 8.25 NA 8.4 NA 20.65 cm  
mvijay 82 AudubonPkLagoon2 40 11/2/2006 2:30  21.4    4.6  8.2  23  
mvijay 82 AudubonPkLagoon2 40 11/8/2006 16:33  21.5    3.1  8.3  52.6 cm  
mvijay 82 AudubonPkLagoon2 40 11/9/2006 2:30  24    4.4  8.4  10  
mvijay 82 AudubonPkLagoon2 40 11/15/2006 16:43 NA 19.3 NA NA NA 4.25 NA 9.0 NA 48.72 cm NA 
mvijay 82 AudubonPkLagoon2 40 11/16/2006 2:30  20    3.0  8.4   
mvijay 82 AudubonPkLagoon2 40 11/17/2006 14:45 19 19 n/a n/a 5.0 5.0 8.5 8.5 very high very high  
mvijay 82 AudubonPkLagoon2 40 11/21/2006 1245  14.5  6.16  3.3  8.5  29.5  
mvijay 82 AudubonPkLagoon2 40 11/29/2006 16:30 NA 20.0 NA NA NA 6.17 NA 9.3 NA 60+ cm NA 
mvijay 82 AudubonPkLagoon2 40 11/30/2006 15:55 NA 21.7 NA NA NA 4.5 NA 8.9 NA 53.9 cm NA 
mvijay 82 AudubonPkLagoon2 40 11/30/2006 1400  23.5  6.19  4.6  8.4  > 60  
mvijay 82 Group IV AudubonPkLagoon2 40 2/14/2008 16:00 NA 18 C NA NA NA 5.76 NA 7.46 NA 11 JTU NA 
mvijay 82 Group IV AudubonPkLagoon2 40 2/21/2008 16:00 NA 21.7C NA NA NA 6.4 NA 7.77 NA 25.6 JTU NA 
mvijay 82 IV AudubonPkLagoon2 40 2/28/2008 16:00 NA 18.9 NA NA NA 5.7 NA 7.59 NA > 60 JTU NA 
mvijay 82 IV AudubonPkLagoon2 40 3/6/2008 16:00 NA 18.9 NA NA NA 7.0 NA 7.52 NA > 60 JTU NA 
mvijay 82 IV AudubonPkLagoon2 40 3/13/2008 16:00 NA 21.5 NA NA NA 6.0 NA 7.72 NA > 60 JTU NA 
mvijay 82 IV AudubonPkLagoon2 40 3/27/2008 16:00 NA 24.5 NA NA NA NA 7.77 NA > 60 JTU NA 
mvijay 82 IV AudubonPkLagoon2 40 4/3/2008 16:00 NA 27 NA NA NA 7.9 NA 7.63 NA > 60 JTU NA 
mvijay 82 AudubonPkLagoon2 40 9/10/2010 15:15 NA 31 NA NA NA NA 8.32  35.26 NA 
mvijay 82 AudubonPkLagoon2 40 9/13/2010 1530 NA 32.3 NA NA NA 16.8 NA 8.6  8.9 NA 
mvijay 82 AudubonPkLagoon2 40 9/17/2010 15:15 NA 32 NA NA NA 9.6 NA 9.03  7.8 NA 
mvijay 82 AudubonPkLagoon2 40 9/20/2010 1537 NA 31.3 NA NA NA 17.2 NA 9.16  16.3 NA 
mvijay 82 AudubonPkLagoon2 40 9/24/2010 15:15 NA 32 NA  NA 9.2 NA 8.65  12.2 NA 
mvijay 82 AudubonPkLagoon2 40 9/27/2010 1534 NA 31.3 NA NA NA 14.2 NA 8.62  15.9 NA 
mvijay 82 AudubonPkLagoon2 40 10/1/2010 15:10 NA 29 NA NA NA 9.8 NA 8.69  15.7 NA 
mvijay 82 AudubonPkLagoon2 40 10/4/2010 1537 NA 23.7 NA NA NA 12.5 NA 8.56  15.5 NA 
mvijay 82 AudubonPkLagoon2 40 10/8/2010 15:15 NA 26 NA NA NA 9.4 NA 8.56  13.0 NA 
mvijay 82 AudubonPkLagoon2 40 10/11/2010 1516 NA 27.7 NA NA NA 12 NA 7.6  NA NA 
mvijay 82 AudubonPkLagoon2 40 10/18/2010 1543 NA 24.8 NA NA NA 13.7 NA 8.4  19.4 NA 
mvijay 82 AudubonPkLagoon2 40 10/22/2010 15:10 NA 26 NA NA NA 9.5 NA 8.37  19.9 NA 
mvijay 82 AudubonPkLagoon2 40 9/17/2012 17:25 NA 38.5 NA NA NA 2.2 NA 8.9  60 NA 
mvijay 82 AudubonPkLagoon2 40 9/18/2012 17:24 NA 27 NA NA NA 9.7 NA 8.0  60 NA 
mvijay 82 AudubonPkLagoon2 40 9/18/2012 17:30 NA 27 NA NA NA 9.7 NA 8.0  60+ NA 
mvijay 82 AudubonPkLagoon2 40 9/19/2012 13:19 NA 31.5 NA NA NA 13.7 NA 9.2  33.2 NA 
mvijay 82 AudubonPkLagoon2 40 9/24/2012 17:15 NA 32.1 NA NA NA 1.8 NA 9.5  60+ NA 
mvijay 82 AudubonPkLagoon2 40 9/25/2012 16:34 NA 29 NA NA NA 9.4 NA 8.3  55.6 NA 
mvijay 82 AudubonPkLagoon2 40 10/2/2012 16:32 NA 25.0 NA NA NA 6.2 NA 7.9  58.4 NA 
mvijay 82 AudubonPkLagoon2 40 10/9/2012 16:30 NA 24 NA NA NA 8.3 NA 8.1  57.3 NA 
mvijay 82 AudubonPkLagoon2 40 10/16/2012 16:27 NA 25 NA NA NA 8.7 NA 8.2  60+ NA 
mvijay 82 AudubonPkLagoon2 40 10/23/2012 16:27 NA 24 NA NA NA 10.0 NA 8.3  57.6 NA 
mvijay 82 AudubonPkLagoon2 40 10/30/2012 16:27 NA 18.0 NA NA NA 9.9 NA 8.5  34.4 NA 
mvijay 82 AudubonPkLagoon2 40 9/12/2013 1600 NA 32 NA NA NA 7.6 NA 8.1  34.6 NA 
mvijay 82 AudubonPkLagoon2 40 9/19/2013 1600 NA 29.5 NA NA NA 6.1 NA 8.2  42 NA 
mvijay 82 AudubonPkLagoon2 40 9/26/2013 1530 NA 30 NA NA NA 48 NA 8.1  32 NA 
mvijay 82 AudubonPkLagoon2 40 10/3/2013 1545 NA 25 NA NA NA 6.1 NA 8.1  40 NA 
mvijay 82 AudubonPkLagoon2 40 10/8/2013 16:35 NA 26 NA NA NA 5.7 NA 8.3  32 NA 
mvijay 82 AudubonPkLagoon2 40 10/17/2013 1630 NA 26 NA NA NA 4.0 NA 8.2  43 NA 
mvijay 82 AudubonPkLagoon2 40 10/24/2013 1530 NA 26 NA NA NA 4.5 NA 8.2  37 NA